Time;durP1;ratioP1;P1;durP2;ratioP2;P2;SDS_P1;SDS_P2;PMS_P1;PMS_P2;Temp;Humidity;BMP_temperature;BMP_pressure;BME280_temperature;BME280_humidity;BME280_pressure;Samples;Min_cycle;Max_cycle;Signal;HPM_P1;HPM_P2
2023/07/09 00:00:48;;;;;;;10.70;4.47;;;;;;;28.35;42.68;101789.69;5033876;28;20045;-29
2023/07/09 00:03:16;;;;;;;7.00;4.65;;;;;;;28.34;42.91;101779.78;5034746;28;20048;-29
2023/07/09 00:05:45;;;;;;;7.38;4.25;;;;;;;28.32;42.92;101777.28;5038563;28;20274;-30
2023/07/09 00:08:28;;;;;;;12.93;5.00;;;;;;;28.32;43.60;101779.16;5039302;28;20397;-30
2023/07/09 00:10:56;;;;;;;7.32;4.55;;;;;;;28.30;43.07;101787.53;5035877;28;20115;-30
2023/07/09 00:13:25;;;;;;;7.15;4.63;;;;;;;28.29;43.49;101789.41;5036765;28;20048;-29
2023/07/09 00:15:54;;;;;;;9.30;4.50;;;;;;;28.28;43.25;101795.91;5035894;28;20136;-31
2023/07/09 00:18:21;;;;;;;7.22;4.47;;;;;;;28.28;42.98;101800.53;5032989;28;20486;-29
2023/07/09 00:20:48;;;;;;;8.38;5.00;;;;;;;28.27;43.37;101812.47;5035101;28;20065;-29
2023/07/09 00:23:16;;;;;;;8.07;4.85;;;;;;;28.26;43.10;101802.59;5034215;28;20135;-30
2023/07/09 00:25:44;;;;;;;6.80;4.45;;;;;;;28.26;42.69;101802.59;5034486;28;20127;-29
2023/07/09 00:28:17;;;;;;;7.18;4.50;;;;;;;28.26;43.19;101808.03;5033795;28;20108;-30
2023/07/09 00:30:45;;;;;;;5.30;4.15;;;;;;;28.23;43.53;101803.00;5032848;28;20764;-30
2023/07/09 00:33:14;;;;;;;6.85;4.40;;;;;;;28.23;42.80;101811.19;5033744;28;20045;-29
2023/07/09 00:35:50;;;;;;;6.75;4.85;;;;;;;28.22;43.06;101814.94;5034059;28;20049;-29
2023/07/09 00:38:22;;;;;;;6.63;4.53;;;;;;;28.21;42.81;101813.25;5034696;28;20045;-29
2023/07/09 00:41:03;;;;;;;8.02;4.68;;;;;;;28.19;43.50;101813.47;5031886;28;20107;-30
2023/07/09 00:43:35;;;;;;;8.02;4.82;;;;;;;28.19;43.37;101818.91;5046456;28;20528;-30
2023/07/09 00:46:20;;;;;;;7.88;4.53;;;;;;;28.18;42.93;101817.25;5042278;28;20103;-29
2023/07/09 00:48:53;;;;;;;6.50;4.68;;;;;;;28.18;43.57;101813.66;5043642;28;20056;-29
2023/07/09 00:51:22;;;;;;;9.68;5.25;;;;;;;28.17;43.44;101821.00;5039186;28;20133;-30
2023/07/09 00:53:53;;;;;;;8.43;5.30;;;;;;;28.16;43.25;101815.75;5035720;28;20052;-29
2023/07/09 00:56:31;;;;;;;7.95;4.60;;;;;;;28.14;43.36;101817.81;5036124;28;20045;-29
2023/07/09 00:59:04;;;;;;;9.43;4.82;;;;;;;28.13;43.39;101813.41;5041875;28;20053;-30
2023/07/09 01:01:32;;;;;;;7.65;5.07;;;;;;;28.12;43.30;101812.56;5037043;28;20049;-30
2023/07/09 01:04:01;;;;;;;7.40;4.28;;;;;;;28.11;43.83;101818.22;5032292;28;20045;-29
2023/07/09 01:06:47;;;;;;;9.30;5.03;;;;;;;28.09;43.96;101818.41;5030280;28;20073;-29
2023/07/09 01:09:13;;;;;;;7.80;5.07;;;;;;;28.09;43.67;101812.97;5028662;28;20041;-29
2023/07/09 01:11:40;;;;;;;9.02;4.93;;;;;;;28.08;43.40;101815.88;5029711;28;20437;-29
2023/07/09 01:14:09;;;;;;;8.60;4.70;;;;;;;28.07;43.54;101814.22;5032653;28;20045;-29
2023/07/09 01:16:41;;;;;;;5.20;4.20;;;;;;;28.06;43.33;101813.34;5033512;28;20076;-29
2023/07/09 01:19:07;;;;;;;6.65;4.57;;;;;;;28.05;43.79;101817.94;5033265;28;20085;-29
2023/07/09 01:21:34;;;;;;;6.68;4.68;;;;;;;28.05;43.38;101819.84;5033924;28;20049;-29
2023/07/09 01:24:15;;;;;;;7.47;4.70;;;;;;;28.03;44.17;101813.75;5030563;28;20427;-29
2023/07/09 01:26:43;;;;;;;6.53;4.32;;;;;;;28.04;43.99;101821.72;5032611;28;20049;-29
2023/07/09 01:29:10;;;;;;;7.40;4.88;;;;;;;28.03;43.74;101822.78;5029349;28;20050;-30
2023/07/09 01:31:37;;;;;;;7.75;4.80;;;;;;;28.02;43.37;101812.06;5029741;28;20056;-29
2023/07/09 01:34:05;;;;;;;8.00;4.68;;;;;;;28.02;44.03;101817.50;5029781;28;20057;-29
2023/07/09 01:36:32;;;;;;;7.15;4.75;;;;;;;28.00;43.75;101812.25;5033861;28;20053;-30
2023/07/09 01:39:00;;;;;;;9.57;4.93;;;;;;;28.00;43.83;101814.16;5027245;28;20049;-30
2023/07/09 01:41:26;;;;;;;9.82;4.93;;;;;;;27.99;44.11;101813.31;5028360;28;20049;-29
2023/07/09 01:43:53;;;;;;;6.65;4.55;;;;;;;27.98;43.68;101814.34;5032095;28;20103;-30
2023/07/09 01:46:21;;;;;;;7.72;4.72;;;;;;;27.98;44.00;101817.06;5031441;28;20480;-30
2023/07/09 01:48:49;;;;;;;6.03;4.38;;;;;;;27.96;44.38;101819.16;5032477;28;20136;-30
2023/07/09 01:51:16;;;;;;;6.78;4.43;;;;;;;27.96;44.17;101818.31;5031667;28;20115;-29
2023/07/09 01:53:47;;;;;;;6.38;4.55;;;;;;;27.94;44.11;101820.38;5030713;28;20049;-29
2023/07/09 01:56:14;;;;;;;7.25;4.80;;;;;;;27.93;44.40;101819.53;5033421;28;20045;-30
2023/07/09 01:58:41;;;;;;;7.13;4.38;;;;;;;27.92;44.52;101826.03;5033642;28;20053;-29
2023/07/09 02:01:09;;;;;;;6.07;4.45;;;;;;;27.91;44.30;101826.22;5032302;28;20042;-29
2023/07/09 02:03:36;;;;;;;8.27;4.55;;;;;;;27.90;44.53;101821.78;5030241;28;20057;-29
2023/07/09 02:06:09;;;;;;;8.73;4.97;;;;;;;27.89;44.87;101825.56;5036850;28;20084;-29
2023/07/09 02:08:36;;;;;;;7.53;5.05;;;;;;;27.87;44.56;101825.78;5034002;28;20041;-30
2023/07/09 02:11:03;;;;;;;7.43;4.30;;;;;;;27.87;44.77;101822.22;5034100;28;20075;-29
2023/07/09 02:13:30;;;;;;;7.35;4.78;;;;;;;27.86;44.85;101826.81;5033089;28;20459;-29
2023/07/09 02:15:57;;;;;;;5.88;4.32;;;;;;;27.83;44.08;101821.75;5037616;28;20397;-29
2023/07/09 02:18:24;;;;;;;6.00;4.43;;;;;;;27.83;44.76;101829.09;5029340;28;20076;-30
2023/07/09 02:20:50;;;;;;;12.48;5.45;;;;;;;27.82;44.68;101819.22;5040288;28;20362;-30
2023/07/09 02:23:17;;;;;;;8.23;4.70;;;;;;;27.79;44.27;101820.47;5043881;28;20052;-29
2023/07/09 02:25:44;;;;;;;8.82;4.70;;;;;;;27.76;44.29;101818.97;5046736;28;20045;-29
2023/07/09 02:28:10;;;;;;;6.78;4.47;;;;;;;27.76;44.46;101824.41;5037702;28;20053;-29
2023/07/09 02:30:37;;;;;;;5.70;4.32;;;;;;;27.76;44.61;101829.00;5037332;28;20080;-29
2023/07/09 02:33:03;;;;;;;7.15;4.70;;;;;;;27.74;44.65;101822.91;5031472;28;20049;-29
2023/07/09 02:35:30;;;;;;;7.35;4.20;;;;;;;27.73;44.58;101823.91;5029596;28;20136;-29
2023/07/09 02:37:57;;;;;;;6.97;4.13;;;;;;;27.72;44.92;101827.69;5029225;28;20140;-29
2023/07/09 02:40:23;;;;;;;6.45;3.97;;;;;;;27.70;44.51;101827.03;5028886;28;20435;-29
2023/07/09 02:42:50;;;;;;;7.32;4.13;;;;;;;27.70;44.58;101829.75;5028990;28;20177;-29
2023/07/09 02:45:16;;;;;;;9.35;4.88;;;;;;;27.68;44.44;101829.97;5029871;28;20140;-29
2023/07/09 02:47:43;;;;;;;7.30;4.15;;;;;;;27.67;45.02;101828.28;5029862;28;21860;-29
2023/07/09 02:50:10;;;;;;;7.82;4.00;;;;;;;27.67;45.46;101836.44;5027331;28;20349;-29
2023/07/09 02:52:36;;;;;;;7.63;5.03;;;;;;;27.65;45.32;101827.59;5027643;28;20081;-29
2023/07/09 02:55:03;;;;;;;7.47;4.95;;;;;;;27.66;44.77;101828.44;5029240;28;20449;-29
2023/07/09 02:57:30;;;;;;;5.97;3.97;;;;;;;27.64;45.29;101825.09;5028887;28;20096;-29
2023/07/09 02:59:56;;;;;;;9.07;4.15;;;;;;;27.62;44.95;101822.56;5027901;28;20140;-29
2023/07/09 03:02:23;;;;;;;5.80;4.45;;;;;;;27.62;45.27;101827.16;5028343;28;20103;-29
2023/07/09 03:04:50;;;;;;;6.68;4.30;;;;;;;27.61;45.38;101828.19;5024985;28;20045;-29
2023/07/09 03:07:16;;;;;;;7.20;4.68;;;;;;;27.60;45.52;101823.78;5024625;28;20180;-29
2023/07/09 03:09:43;;;;;;;7.32;4.97;;;;;;;27.59;45.65;101827.56;5025670;28;20069;-29
2023/07/09 03:12:10;;;;;;;9.48;4.10;;;;;;;27.59;44.81;101831.13;5027630;28;20433;-29
2023/07/09 03:14:36;;;;;;;8.85;4.30;;;;;;;27.58;45.13;101820.41;5030991;28;20073;-29
2023/07/09 03:17:03;;;;;;;7.35;4.22;;;;;;;27.55;45.87;101822.50;5027780;28;20434;-29
2023/07/09 03:19:30;;;;;;;8.50;5.18;;;;;;;27.55;45.62;101816.22;5026689;28;20461;-29
2023/07/09 03:21:56;;;;;;;6.25;4.22;;;;;;;27.54;45.46;101822.69;5028603;28;20076;-29
2023/07/09 03:24:23;;;;;;;7.15;4.22;;;;;;;27.52;45.06;101822.88;5026282;28;20214;-29
2023/07/09 03:26:50;;;;;;;7.95;4.90;;;;;;;27.52;46.08;101827.47;5029693;28;20108;-29
2023/07/09 03:29:16;;;;;;;6.18;4.22;;;;;;;27.51;45.36;101825.81;5026220;28;21768;-29
2023/07/09 03:31:43;;;;;;;6.65;4.57;;;;;;;27.50;45.84;101833.13;5027945;28;20223;-29
2023/07/09 03:34:10;;;;;;;7.68;4.72;;;;;;;27.49;45.28;101827.84;5028836;28;20046;-29
2023/07/09 03:36:39;;;;;;;8.30;4.63;;;;;;;27.49;45.35;101825.97;5027367;28;21840;-29
2023/07/09 03:39:06;;;;;;;7.55;4.72;;;;;;;27.47;46.10;101833.50;5029686;28;20145;-29
2023/07/09 03:41:33;;;;;;;7.95;4.13;;;;;;;27.47;45.54;101832.66;5037981;28;20057;-29
2023/07/09 03:44:00;;;;;;;7.95;4.60;;;;;;;27.45;45.52;101838.28;5037346;28;20088;-29
2023/07/09 03:46:27;;;;;;;7.10;4.53;;;;;;;27.46;45.76;101837.28;5035451;28;20045;-29
2023/07/09 03:48:53;;;;;;;6.43;4.03;;;;;;;27.45;45.94;101837.44;5028460;28;20050;-29
2023/07/09 03:51:20;;;;;;;5.78;4.10;;;;;;;27.43;45.83;101839.53;5029822;28;20045;-29
2023/07/09 03:53:47;;;;;;;7.10;4.50;;;;;;;27.42;45.63;101846.88;5031297;28;20080;-29
2023/07/09 03:56:13;;;;;;;6.72;4.70;;;;;;;27.41;45.82;101850.59;5035135;28;20045;-29
2023/07/09 03:58:40;;;;;;;6.00;4.20;;;;;;;27.41;46.06;101847.88;5035496;28;20130;-29
2023/07/09 04:01:06;;;;;;;6.30;4.22;;;;;;;27.39;46.12;101844.53;5037243;28;20075;-29
2023/07/09 04:03:33;;;;;;;7.43;4.22;;;;;;;27.39;46.00;101844.53;5030744;28;20130;-29
2023/07/09 04:06:00;;;;;;;6.65;4.93;;;;;;;27.38;45.74;101851.00;5026520;28;20087;-29
2023/07/09 04:08:27;;;;;;;6.57;3.75;;;;;;;27.36;45.64;101850.34;5027009;28;20057;-29
2023/07/09 04:10:56;;;;;;;5.55;4.28;;;;;;;27.36;45.91;101850.34;5025123;28;20107;-28
2023/07/09 04:13:23;;;;;;;7.50;4.55;;;;;;;27.35;45.82;101854.09;5027262;28;20053;-29
2023/07/09 04:15:49;;;;;;;7.18;3.90;;;;;;;27.35;46.22;101848.66;5026738;28;20062;-29
2023/07/09 04:18:16;;;;;;;7.70;4.78;;;;;;;27.35;46.32;101848.66;5026512;28;20057;-29
2023/07/09 04:20:43;;;;;;;7.72;4.47;;;;;;;27.34;46.29;101852.44;5029175;28;20099;-29
2023/07/09 04:23:11;;;;;;;6.80;4.28;;;;;;;27.35;46.11;101858.72;5025620;28;20089;-29
2023/07/09 04:25:37;;;;;;;8.07;4.40;;;;;;;27.33;46.02;101856.16;5032143;28;20095;-29
2023/07/09 04:28:05;;;;;;;7.05;4.50;;;;;;;27.34;46.29;101854.28;5026827;28;20322;-29
2023/07/09 04:30:32;;;;;;;7.75;4.50;;;;;;;27.34;46.37;101852.44;5025464;28;20068;-29
2023/07/09 04:32:59;;;;;;;7.78;4.70;;;;;;;27.34;46.06;101851.56;5026951;28;20053;-29
2023/07/09 04:35:25;;;;;;;6.57;4.45;;;;;;;27.33;45.89;101850.72;5025724;28;20053;-29
2023/07/09 04:37:52;;;;;;;5.78;4.07;;;;;;;27.33;46.46;101845.28;5024626;28;20053;-28
2023/07/09 04:40:19;;;;;;;7.50;4.60;;;;;;;27.33;46.38;101841.72;5029000;28;20133;-29
2023/07/09 04:42:46;;;;;;;7.85;4.30;;;;;;;27.33;46.09;101844.44;5029798;28;20131;-29
2023/07/09 04:45:13;;;;;;;7.25;4.75;;;;;;;27.34;46.07;101837.94;5030926;28;20103;-29
2023/07/09 04:47:40;;;;;;;7.22;4.57;;;;;;;27.33;45.89;101842.56;5026634;28;20065;-29
2023/07/09 04:50:08;;;;;;;6.93;4.78;;;;;;;27.34;45.83;101843.38;5026890;28;20052;-29
2023/07/09 04:52:35;;;;;;;6.55;4.18;;;;;;;27.34;46.29;101843.38;5024007;28;20076;-29
2023/07/09 04:55:01;;;;;;;7.38;4.25;;;;;;;27.34;46.16;101841.53;5026260;28;20041;-29
2023/07/09 04:57:28;;;;;;;8.50;5.00;;;;;;;27.35;46.25;101839.66;5025740;28;20045;-29
2023/07/09 04:59:55;;;;;;;5.97;4.47;;;;;;;27.36;46.59;101844.06;5025612;28;20061;-29
2023/07/09 05:02:23;;;;;;;7.03;4.07;;;;;;;27.38;45.59;101842.84;5030073;28;20499;-30
2023/07/09 05:04:49;;;;;;;5.88;3.88;;;;;;;27.39;45.59;101841.81;5032827;28;20060;-29
2023/07/09 05:07:16;;;;;;;6.35;4.18;;;;;;;27.41;45.96;101839.72;5032511;28;20052;-29
2023/07/09 05:09:43;;;;;;;7.22;4.25;;;;;;;27.42;46.35;101841.41;5033506;28;20539;-29
2023/07/09 05:12:10;;;;;;;6.15;3.75;;;;;;;27.42;46.08;101838.69;5033988;28;20465;-29
2023/07/09 05:14:37;;;;;;;9.60;4.78;;;;;;;27.43;45.84;101836.81;5034384;28;20075;-29
2023/07/09 05:17:04;;;;;;;6.15;3.90;;;;;;;27.45;45.52;101837.44;5033566;28;20049;-28
2023/07/09 05:19:31;;;;;;;7.05;4.50;;;;;;;27.46;46.10;101833.72;5031038;28;20103;-29
2023/07/09 05:21:58;;;;;;;6.05;4.10;;;;;;;27.47;45.77;101830.78;5032918;28;20416;-29
2023/07/09 05:24:25;;;;;;;7.03;4.10;;;;;;;27.49;45.88;101833.31;5033911;28;20042;-29
2023/07/09 05:26:55;;;;;;;5.35;3.85;;;;;;;27.49;45.79;101836.88;5034274;28;20046;-29
2023/07/09 05:29:22;;;;;;;6.10;4.28;;;;;;;27.51;46.22;101840.25;5034176;28;20059;-29
2023/07/09 05:31:49;;;;;;;6.20;4.32;;;;;;;27.53;45.70;101840.91;5034885;28;20401;-29
2023/07/09 05:34:15;;;;;;;5.80;4.22;;;;;;;27.54;45.35;101837.16;5033944;28;20045;-29
2023/07/09 05:36:42;;;;;;;6.93;4.30;;;;;;;27.54;45.70;101834.44;5033015;28;20489;-29
2023/07/09 05:39:09;;;;;;;5.40;3.90;;;;;;;27.56;45.42;101843.25;5034399;28;20100;-29
2023/07/09 05:41:35;;;;;;;6.93;3.65;;;;;;;27.56;45.67;101840.50;5035611;28;20094;-28
2023/07/09 05:44:02;;;;;;;6.13;4.07;;;;;;;27.56;45.42;101839.69;5034652;28;20148;-29
2023/07/09 05:46:35;;;;;;;6.10;4.00;;;;;;;27.57;45.52;101846.81;5027960;28;20134;-29
2023/07/09 05:49:04;;;;;;;7.05;4.38;;;;;;;27.58;45.92;101845.78;5030937;28;20053;-29
2023/07/09 05:51:31;;;;;;;6.53;4.10;;;;;;;27.59;45.78;101849.34;5030567;28;20370;-29
2023/07/09 05:53:58;;;;;;;6.53;4.25;;;;;;;27.59;45.66;101843.91;5035054;28;20045;-29
2023/07/09 05:56:25;;;;;;;7.05;4.47;;;;;;;27.60;45.51;101845.59;5035744;28;20041;-29
2023/07/09 05:58:52;;;;;;;5.03;3.78;;;;;;;27.60;45.81;101840.97;5034519;28;20128;-28
2023/07/09 06:01:20;;;;;;;5.32;3.95;;;;;;;27.61;45.28;101841.81;5027300;28;20045;-30
2023/07/09 06:03:47;;;;;;;6.32;4.20;;;;;;;27.61;45.48;101841.81;5033980;28;20421;-29
2023/07/09 06:06:13;;;;;;;5.40;3.97;;;;;;;27.61;45.00;101847.25;5026987;28;20115;-29
2023/07/09 06:08:40;;;;;;;4.95;3.80;;;;;;;27.61;45.10;101842.66;5025428;28;20480;-29
2023/07/09 06:11:07;;;;;;;6.55;4.90;;;;;;;27.62;45.49;101846.22;5026507;28;20042;-29
2023/07/09 06:13:34;;;;;;;5.60;4.10;;;;;;;27.61;45.68;101848.09;5033141;28;20054;-29
2023/07/09 06:16:01;;;;;;;6.72;4.20;;;;;;;27.63;45.26;101853.38;5033670;28;20433;-29
2023/07/09 06:18:29;;;;;;;7.50;4.38;;;;;;;27.63;45.88;101861.53;5027424;28;20128;-29
2023/07/09 06:20:59;;;;;;;6.32;4.43;;;;;;;27.63;45.06;101861.53;5032886;28;20457;-29
2023/07/09 06:23:26;;;;;;;5.97;4.28;;;;;;;27.62;45.81;101859.84;5040823;28;20049;-28
2023/07/09 06:25:53;;;;;;;6.18;4.22;;;;;;;27.62;45.87;101866.16;5036327;28;20084;-29
2023/07/09 06:28:23;;;;;;;5.72;4.00;;;;;;;27.63;45.18;101872.44;5035827;28;20302;-29
2023/07/09 06:30:50;;;;;;;5.82;4.20;;;;;;;27.63;45.67;101872.44;5032006;28;20053;-29
2023/07/09 06:33:19;;;;;;;7.63;4.00;;;;;;;27.63;45.21;101869.72;5023657;28;20499;-29
2023/07/09 06:35:51;;;;;;;6.90;4.50;;;;;;;27.63;45.44;101877.88;5028934;28;20057;-29
2023/07/09 06:38:18;;;;;;;6.15;4.30;;;;;;;27.63;45.69;101877.88;5025806;28;20053;-29
2023/07/09 06:40:45;;;;;;;6.53;4.07;;;;;;;27.64;45.41;101885.03;5029081;28;20334;-29
2023/07/09 06:43:12;;;;;;;7.85;4.65;;;;;;;27.64;45.38;101887.75;5039932;28;20332;-29
2023/07/09 06:45:47;;;;;;;7.13;5.05;;;;;;;27.64;45.92;101885.84;5034852;28;20045;-29
2023/07/09 06:48:14;;;;;;;7.70;4.68;;;;;;;27.65;46.17;101887.53;5041945;28;20110;-29
2023/07/09 06:50:40;;;;;;;9.43;4.90;;;;;;;27.66;45.58;101886.53;5032270;28;20049;-29
2023/07/09 06:53:07;;;;;;;7.85;4.50;;;;;;;27.67;46.28;101884.63;5033884;28;21241;-29
2023/07/09 06:55:34;;;;;;;6.18;4.60;;;;;;;27.65;46.07;101887.53;5027284;28;20464;-29
2023/07/09 06:58:00;;;;;;;8.32;5.68;;;;;;;27.66;46.32;101883.81;5043129;28;20391;-30
2023/07/09 07:00:27;;;;;;;9.35;5.97;;;;;;;27.67;46.59;101890.09;5034249;28;20437;-29
2023/07/09 07:02:53;;;;;;;9.15;5.35;;;;;;;27.66;47.00;101882.94;5032565;28;20077;-30
2023/07/09 07:05:20;;;;;;;10.05;6.10;;;;;;;27.68;47.09;101887.16;5033312;28;20477;-29
2023/07/09 07:07:47;;;;;;;9.30;6.28;;;;;;;27.68;46.69;101891.75;5031230;28;20049;-29
2023/07/09 07:10:13;;;;;;;15.38;7.07;;;;;;;27.67;46.75;101893.66;5034544;28;20064;-29
2023/07/09 07:12:46;;;;;;;10.68;6.57;;;;;;;27.67;46.81;101896.38;5035647;28;20559;-29
2023/07/09 07:15:15;;;;;;;16.00;6.65;;;;;;;27.69;47.42;101898.91;5033862;28;20053;-29
2023/07/09 07:17:43;;;;;;;14.20;7.05;;;;;;;27.69;46.64;101907.91;5031834;28;20081;-29
2023/07/09 07:20:11;;;;;;;19.48;8.82;;;;;;;27.69;47.42;101901.63;5035478;28;20100;-29
2023/07/09 07:22:38;;;;;;;16.10;7.85;;;;;;;27.70;47.77;101908.75;5030959;28;20052;-29
2023/07/09 07:25:06;;;;;;;22.42;9.07;;;;;;;27.70;47.84;101906.91;5034212;28;20323;-29
2023/07/09 07:27:33;;;;;;;15.70;8.70;;;;;;;27.70;47.99;101908.75;5033874;28;20056;-29
2023/07/09 07:30:00;;;;;;;20.48;10.25;;;;;;;27.71;48.33;101900.41;5035172;28;20051;-29
2023/07/09 07:32:27;;;;;;;16.13;7.97;;;;;;;27.71;48.68;101910.47;5030563;28;20137;-29
2023/07/09 07:34:54;;;;;;;19.20;8.73;;;;;;;27.71;48.43;101908.56;5027164;28;20409;-30
2023/07/09 07:37:21;;;;;;;17.23;8.52;;;;;;;27.72;48.63;101904.81;5026158;28;20076;-29
2023/07/09 07:39:48;;;;;;;17.45;8.93;;;;;;;27.72;48.34;101895.78;5027178;28;20053;-29
2023/07/09 07:42:15;;;;;;;16.73;9.50;;;;;;;27.72;48.83;101895.78;5028119;28;20132;-29
2023/07/09 07:44:41;;;;;;;13.50;7.75;;;;;;;27.73;48.82;101900.19;5029870;28;20053;-29
2023/07/09 07:47:08;;;;;;;15.48;7.68;;;;;;;27.73;48.11;101902.91;5037758;28;20362;-29
2023/07/09 07:49:35;;;;;;;16.73;8.15;;;;;;;27.73;48.90;101903.78;5036257;28;20346;-29
2023/07/09 07:52:03;;;;;;;14.52;7.28;;;;;;;27.73;47.98;101895.63;5020786;28;20054;-29
2023/07/09 07:54:33;;;;;;;12.98;7.28;;;;;;;27.74;48.72;101896.47;5033735;28;20056;-29
2023/07/09 07:57:00;;;;;;;15.38;10.52;;;;;;;27.74;48.83;101896.47;5034825;28;20048;-29
2023/07/09 07:59:27;;;;;;;16.58;8.07;;;;;;;27.75;48.47;101892.72;5040510;28;20045;-30
2023/07/09 08:01:53;;;;;;;19.35;8.95;;;;;;;27.74;48.99;101880.13;5036090;28;20107;-29
2023/07/09 08:04:20;;;;;;;14.52;9.68;;;;;;;27.74;48.63;101891.88;5038153;28;20051;-29
2023/07/09 08:06:47;;;;;;;17.15;8.13;;;;;;;27.76;48.73;101886.22;5045329;28;20049;-29
2023/07/09 08:09:15;;;;;;;13.02;7.95;;;;;;;27.76;48.33;101888.94;5032898;28;20492;-29
2023/07/09 08:11:42;;;;;;;23.90;9.48;;;;;;;27.76;48.60;101895.25;5032755;28;20053;-29
2023/07/09 08:14:09;;;;;;;16.98;10.55;;;;;;;27.76;48.90;101897.13;5038085;28;20129;-30
2023/07/09 08:16:36;;;;;;;22.90;12.05;;;;;;;27.76;48.89;101900.69;5035927;28;20071;-30
2023/07/09 08:19:02;;;;;;;13.32;8.30;;;;;;;27.77;49.10;101890.63;5037998;28;20042;-29
2023/07/09 08:21:29;;;;;;;14.30;9.73;;;;;;;27.77;49.37;101883.31;5042180;28;20498;-29
2023/07/09 08:23:56;;;;;;;15.40;9.57;;;;;;;27.78;48.76;101889.63;5023171;28;20127;-29
2023/07/09 08:26:24;;;;;;;16.42;9.57;;;;;;;27.78;48.79;101884.16;5036292;28;20053;-30
2023/07/09 08:28:51;;;;;;;14.50;9.13;;;;;;;27.79;48.53;101883.13;5032003;28;20688;-29
2023/07/09 08:31:18;;;;;;;17.02;9.88;;;;;;;27.79;49.29;101877.69;5029698;28;20082;-29
2023/07/09 08:33:45;;;;;;;18.67;11.73;;;;;;;27.80;49.43;101879.34;5025886;28;20053;-29
2023/07/09 08:36:12;;;;;;;17.90;9.80;;;;;;;27.80;48.96;101879.34;5025554;28;20049;-29
2023/07/09 08:38:39;;;;;;;16.55;10.05;;;;;;;27.81;49.65;101878.31;5034868;28;20095;-29
2023/07/09 08:41:20;;;;;;;18.75;12.45;;;;;;;27.81;49.15;101889.22;5040193;28;20397;-29
2023/07/09 08:44:26;;;;;;;17.17;11.02;;;;;;;27.79;49.67;101878.50;5032689;28;20045;-29
2023/07/09 08:47:23;;;;;;;21.90;11.05;;;;;;;27.82;49.99;101877.28;5011738;28;20831;-29
2023/07/09 08:49:56;;;;;;;21.80;13.77;;;;;;;27.84;49.93;101880.66;5018255;28;20475;-29
2023/07/09 08:52:47;;;;;;;21.40;14.90;;;;;;;27.84;50.64;101867.03;5018535;28;20052;-29
2023/07/09 08:55:28;;;;;;;22.73;12.20;;;;;;;27.85;50.08;101874.16;5021209;28;20349;-29
2023/07/09 08:58:00;;;;;;;17.17;11.50;;;;;;;27.88;49.38;101876.50;5001518;28;20072;-30
2023/07/09 09:00:54;;;;;;;24.08;14.75;;;;;;;27.88;51.07;101876.50;4997466;28;20092;-30
2023/07/09 09:03:29;;;;;;;23.77;15.77;;;;;;;27.90;50.62;101874.44;4995651;28;21731;-30
2023/07/09 09:05:57;;;;;;;24.77;15.52;;;;;;;27.92;49.97;101877.81;4995436;28;21447;-29
2023/07/09 09:08:34;;;;;;;21.55;14.13;;;;;;;27.93;50.10;101878.63;4996368;28;20151;-30
2023/07/09 09:11:14;;;;;;;22.67;14.38;;;;;;;27.93;49.86;101870.47;4995279;28;20105;-30
2023/07/09 09:13:41;;;;;;;19.02;13.02;;;;;;;27.94;49.36;101873.00;4996984;28;20057;-30
2023/07/09 09:16:20;;;;;;;19.60;11.25;;;;;;;27.96;48.17;101880.97;4995004;28;20056;-30
2023/07/09 09:18:48;;;;;;;15.50;9.95;;;;;;;27.98;48.24;101877.03;4997046;28;20057;-32
2023/07/09 09:21:24;;;;;;;14.90;10.10;;;;;;;28.00;47.80;101883.13;4993967;28;20156;-30
2023/07/09 09:23:54;;;;;;;14.63;9.43;;;;;;;28.01;47.99;101871.16;4994731;28;20420;-31
2023/07/09 09:26:30;;;;;;;15.45;8.93;;;;;;;28.04;46.93;101872.69;4998163;28;20056;-30
2023/07/09 09:28:57;;;;;;;14.38;9.75;;;;;;;28.07;46.80;101868.72;4994615;28;20064;-31
2023/07/09 09:31:26;;;;;;;13.32;9.25;;;;;;;28.10;47.53;101868.31;4993254;28;21236;-31
2023/07/09 09:33:53;;;;;;;17.60;8.32;;;;;;;28.14;47.12;101877.78;4993494;28;21913;-31
2023/07/09 09:36:25;;;;;;;12.43;8.98;;;;;;;28.18;46.74;101862.72;4994020;28;20061;-31
2023/07/09 09:38:53;;;;;;;14.18;8.90;;;;;;;28.20;47.15;101857.94;4994951;28;20060;-31
2023/07/09 09:41:22;;;;;;;16.98;8.77;;;;;;;28.23;47.31;101868.44;4996550;28;20049;-30
2023/07/09 09:43:52;;;;;;;22.83;9.70;;;;;;;28.24;46.95;101862.78;5000666;28;20057;-30
2023/07/09 09:46:26;;;;;;;15.77;7.82;;;;;;;28.27;47.58;101865.13;4998549;28;20054;-31
2023/07/09 09:48:55;;;;;;;14.35;8.45;;;;;;;28.30;47.56;101863.88;5001456;28;20053;-30
2023/07/09 09:51:23;;;;;;;14.93;8.13;;;;;;;28.32;47.36;101859.06;4999440;28;20119;-31
2023/07/09 09:53:55;;;;;;;21.58;14.75;;;;;;;28.35;47.69;101866.88;4996543;28;20049;-30
2023/07/09 09:56:31;;;;;;;25.35;16.02;;;;;;;28.38;47.93;101862.91;4998480;28;20069;-30
2023/07/09 09:58:58;;;;;;;22.13;13.23;;;;;;;28.41;47.40;101871.53;4997167;28;20140;-30
2023/07/09 10:01:29;;;;;;;23.95;13.38;;;;;;;28.43;47.72;101874.09;5002054;28;20053;-30
2023/07/09 10:03:58;;;;;;;21.98;11.45;;;;;;;28.45;47.17;101878.28;5002947;28;20048;-30
2023/07/09 10:07:01;;;;;;;16.02;11.15;;;;;;;28.45;47.78;101880.19;4996514;28;20149;-30
2023/07/09 10:09:46;;;;;;;15.70;10.10;;;;;;;28.49;47.45;101890.47;4989084;28;20072;-30
2023/07/09 10:12:23;;;;;;;15.63;8.88;;;;;;;28.52;47.50;101889.25;4994504;28;20050;-30
2023/07/09 10:15:09;;;;;;;15.07;9.55;;;;;;;28.54;47.56;101889.88;4996442;28;20328;-30
2023/07/09 10:17:39;;;;;;;14.23;8.45;;;;;;;28.58;47.08;101880.25;4992894;28;20597;-30
2023/07/09 10:20:23;;;;;;;14.20;8.32;;;;;;;28.59;47.18;101886.59;4996590;28;20057;-31
2023/07/09 10:23:12;;;;;;;12.15;7.50;;;;;;;28.62;46.93;101883.44;4992481;28;20096;-30
2023/07/09 10:25:54;;;;;;;14.82;6.55;;;;;;;28.65;46.96;101888.50;4995289;28;20400;-30
2023/07/09 10:28:46;;;;;;;14.47;7.57;;;;;;;28.65;46.24;101889.34;4992601;28;20357;-31
2023/07/09 10:31:58;;;;;;;14.98;8.15;;;;;;;28.68;45.97;101879.94;4993280;28;20132;-32
2023/07/09 10:34:45;;;;;;;12.93;7.70;;;;;;;28.71;46.47;101871.34;4993161;28;20050;-31
2023/07/09 10:37:21;;;;;;;14.38;8.07;;;;;;;28.76;46.68;101875.16;4995319;28;20483;-30
2023/07/09 10:39:51;;;;;;;17.23;7.90;;;;;;;28.76;46.02;101877.03;4996218;28;20327;-30
2023/07/09 10:42:24;;;;;;;10.20;7.18;;;;;;;28.76;45.41;101874.31;4998225;28;20051;-30
2023/07/09 10:44:57;;;;;;;16.63;7.38;;;;;;;28.77;45.31;101862.34;4998492;28;20504;-30
2023/07/09 10:47:50;;;;;;;12.88;8.52;;;;;;;28.80;45.27;101870.13;4998231;28;20519;-30
2023/07/09 10:50:28;;;;;;;17.67;7.70;;;;;;;28.79;45.64;101871.19;4996307;28;21376;-31
2023/07/09 10:53:00;;;;;;;15.70;7.15;;;;;;;28.79;46.04;101876.66;4996793;28;20048;-30
2023/07/09 10:55:52;;;;;;;12.90;7.53;;;;;;;28.75;46.10;101883.56;4998963;28;20401;-32
2023/07/09 10:58:37;;;;;;;13.23;7.50;;;;;;;28.79;46.25;101884.84;4997963;28;20528;-32
2023/07/09 11:01:04;;;;;;;13.20;7.22;;;;;;;28.80;46.32;101886.50;4998171;28;20072;-31
2023/07/09 11:03:53;;;;;;;11.93;7.43;;;;;;;28.81;46.30;101887.34;4998344;28;20077;-31
2023/07/09 11:06:38;;;;;;;12.45;8.00;;;;;;;28.83;46.13;101883.38;4997109;28;20045;-32
2023/07/09 11:09:17;;;;;;;16.50;9.73;;;;;;;28.85;46.51;101885.91;4996149;28;20099;-31
2023/07/09 11:11:50;;;;;;;17.08;11.40;;;;;;;28.86;45.70;101895.78;4998252;28;20072;-32
2023/07/09 11:14:40;;;;;;;18.80;10.90;;;;;;;28.85;46.21;101894.09;4995095;28;20182;-31
2023/07/09 11:17:17;;;;;;;20.08;9.82;;;;;;;28.85;45.48;101883.19;4995890;28;20064;-32
2023/07/09 11:19:46;;;;;;;17.17;9.20;;;;;;;28.87;46.08;101871.03;4996174;28;20057;-31
2023/07/09 11:22:25;;;;;;;14.32;8.48;;;;;;;28.87;46.11;101868.31;4997107;28;20045;-31
2023/07/09 11:25:10;;;;;;;11.57;8.30;;;;;;;28.89;46.64;101863.47;4995538;28;20396;-31
2023/07/09 11:27:49;;;;;;;12.80;8.32;;;;;;;28.91;46.56;101863.28;4996867;28;20441;-31
2023/07/09 11:30:25;;;;;;;15.90;8.02;;;;;;;28.92;46.62;101864.97;4990283;28;20461;-32
2023/07/09 11:32:55;;;;;;;10.75;7.05;;;;;;;28.93;45.83;101863.91;4995763;28;20111;-31
2023/07/09 11:36:06;;;;;;;11.48;6.13;;;;;;;28.93;46.36;101877.56;5011496;28;20449;-31